Time;durP1;ratioP1;P1;durP2;ratioP2;P2;SDS_P1;SDS_P2;PMS_P1;PMS_P2;Temp;Humidity;BMP_temperature;BMP_pressure;BME280_temperature;BME280_humidity;BME280_pressure;Samples;Min_cycle;Max_cycle;Signal;HPM_P1;HPM_P2
2021/05/27 00:00:33;;;;;;;10.28;6.95;;;;;;;40.52;38.99;161885.45;1799043;80;21344;-86
2021/05/27 00:03:07;;;;;;;12.05;7.90;;;;;;;40.53;38.98;161888.14;1793607;79;21261;-86
2021/05/27 00:05:39;;;;;;;11.78;7.62;;;;;;;40.63;38.90;161913.66;1791445;80;21202;-86
2021/05/27 00:08:11;;;;;;;12.13;6.47;;;;;;;40.63;38.94;161913.66;1796895;79;21175;-86
2021/05/27 00:10:43;;;;;;;11.93;7.58;;;;;;;40.78;38.79;161953.98;1785479;80;21305;-87
2021/05/27 00:13:16;;;;;;;10.48;7.35;;;;;;;40.68;38.86;161927.09;1793015;79;21395;-86
2021/05/27 00:15:49;;;;;;;10.38;7.60;;;;;;;40.70;38.83;161933.78;1788267;79;21309;-85
2021/05/27 00:18:23;;;;;;;11.35;7.17;;;;;;;40.64;38.93;161917.66;1792776;79;21332;-85
2021/05/27 00:20:56;;;;;;;9.43;6.53;;;;;;;40.64;38.94;161916.34;1790608;79;21292;-86
2021/05/27 00:23:28;;;;;;;13.38;7.17;;;;;;;40.66;38.94;161921.72;1798215;79;21237;-86
2021/05/27 00:26:01;;;;;;;11.48;6.90;;;;;;;40.60;39.07;161906.97;1799281;79;21372;-87
2021/05/27 00:28:33;;;;;;;11.12;6.75;;;;;;;40.72;38.97;161939.16;1792694;80;21994;-87
2021/05/27 00:31:06;;;;;;;9.45;7.00;;;;;;;40.58;39.04;161901.59;1782445;80;21852;-88
2021/05/27 00:33:39;;;;;;;9.80;6.80;;;;;;;40.75;38.81;161947.23;1784522;80;21744;-87
2021/05/27 00:36:11;;;;;;;11.80;7.40;;;;;;;40.84;38.66;161971.42;1781384;79;21337;-84
2021/05/27 00:38:44;;;;;;;10.10;7.30;;;;;;;40.67;38.84;161924.41;1799194;80;21760;-85
2021/05/27 00:41:16;;;;;;;11.45;6.80;;;;;;;40.67;38.87;161925.72;1800491;78;21847;-86
2021/05/27 00:43:48;;;;;;;12.88;7.28;;;;;;;40.64;38.96;161916.34;1782388;79;21206;-86
2021/05/27 00:46:21;;;;;;;10.50;6.87;;;;;;;40.64;38.93;161916.34;1798055;79;21150;-86
2021/05/27 00:49:02;;;;;;;12.50;7.10;;;;;;;41.10;38.42;162041.19;1789402;80;21146;-87
2021/05/27 00:51:34;;;;;;;14.75;7.40;;;;;;;40.62;38.88;161910.97;1795276;80;21353;-86
2021/05/27 00:54:07;;;;;;;8.13;6.50;;;;;;;40.55;39.01;161893.52;1779553;80;21320;-85
2021/05/27 00:56:41;;;;;;;10.75;7.05;;;;;;;40.46;39.07;161868.00;1787359;80;21242;-85
2021/05/27 00:59:13;;;;;;;9.65;6.97;;;;;;;40.47;39.12;161872.06;1798513;80;21162;-86
2021/05/27 01:01:49;;;;;;;9.73;6.85;;;;;;;40.52;39.13;161885.45;1797992;79;21887;-87
2021/05/27 01:04:21;;;;;;;9.83;7.30;;;;;;;40.52;39.11;161884.13;1792374;79;21828;-86
2021/05/27 01:06:54;;;;;;;11.20;6.53;;;;;;;40.58;39.01;161901.59;1789333;79;21300;-86
2021/05/27 01:09:26;;;;;;;9.15;5.67;;;;;;;40.49;39.17;161876.06;1797361;78;21249;-86
2021/05/27 01:11:59;;;;;;;8.33;6.40;;;;;;;40.42;39.29;161858.63;1793799;79;21199;-87
2021/05/27 01:17:26;;;;;;;10.00;6.17;;;;;;;40.36;39.52;161842.55;1789259;80;21360;-88
2021/05/27 01:19:58;;;;;;;9.40;6.67;;;;;;;40.39;39.50;161850.61;1799231;79;21335;-86
2021/05/27 01:22:31;;;;;;;8.40;6.37;;;;;;;40.28;39.68;161821.00;1786607;80;21681;-88
2021/05/27 01:25:05;;;;;;;8.45;5.92;;;;;;;40.41;39.57;161855.94;1800028;79;21344;-87
2021/05/27 01:27:38;;;;;;;7.33;5.72;;;;;;;40.32;39.62;161831.75;1799256;80;21158;-86
2021/05/27 01:30:11;;;;;;;7.20;5.85;;;;;;;40.23;39.73;161806.25;1796568;79;21721;-86
2021/05/27 01:32:44;;;;;;;7.45;5.80;;;;;;;40.28;39.64;161819.69;1799014;80;21403;-86
2021/05/27 01:35:22;;;;;;;8.48;5.97;;;;;;;40.32;39.52;161830.44;1799371;80;21273;-87
2021/05/27 01:37:56;;;;;;;10.63;6.15;;;;;;;40.35;39.43;161839.86;1785411;79;21690;-87
2021/05/27 01:40:28;;;;;;;8.45;5.17;;;;;;;40.34;39.40;161835.81;1791051;79;21305;-86
2021/05/27 01:43:02;;;;;;;8.83;4.85;;;;;;;40.37;39.31;161843.88;1774390;79;21614;-84
2021/05/27 01:45:35;;;;;;;9.93;5.85;;;;;;;40.33;39.31;161834.48;1793577;80;21320;-86
2021/05/27 01:48:08;;;;;;;8.88;5.47;;;;;;;40.35;39.28;161838.50;1798634;80;21468;-88
2021/05/27 01:50:45;;;;;;;8.88;5.65;;;;;;;40.33;39.29;161834.48;1795951;80;21283;-87
2021/05/27 01:53:18;;;;;;;7.12;5.30;;;;;;;40.36;39.25;161841.19;1779425;80;21222;-87
2021/05/27 01:55:51;;;;;;;10.82;6.08;;;;;;;40.36;39.13;161841.19;1799174;79;21237;-84
2021/05/27 01:58:25;;;;;;;7.55;5.40;;;;;;;40.36;39.08;161842.55;1792141;79;21834;-85
2021/05/27 02:00:59;;;;;;;7.33;5.53;;;;;;;40.43;38.97;161861.31;1788025;80;21348;-84
2021/05/27 02:03:34;;;;;;;8.53;5.62;;;;;;;40.45;38.89;161865.38;1794598;80;21189;-84
2021/05/27 02:06:16;;;;;;;8.65;6.00;;;;;;;40.34;39.04;161835.81;1775831;79;21156;-85
2021/05/27 02:09:08;;;;;;;8.55;6.08;;;;;;;40.43;38.90;161861.31;1791999;79;21249;-85
2021/05/27 02:11:47;;;;;;;9.93;6.03;;;;;;;40.24;39.01;161808.94;1798458;80;21233;-84
2021/05/27 02:14:24;;;;;;;7.75;5.83;;;;;;;40.18;39.12;161794.17;1789224;79;21369;-81
2021/05/27 02:16:57;;;;;;;7.53;5.55;;;;;;;40.19;39.14;161795.55;1792614;79;21190;-83
2021/05/27 02:19:30;;;;;;;6.87;5.28;;;;;;;40.12;39.18;161778.09;1796469;79;21337;-84
2021/05/27 02:22:03;;;;;;;10.48;5.92;;;;;;;40.65;38.56;161919.03;1803018;79;21332;-82
2021/05/27 02:24:55;;;;;;;7.95;5.10;;;;;;;40.38;38.70;161847.92;1771631;79;21278;-85
2021/05/27 02:27:28;;;;;;;7.37;5.83;;;;;;;40.70;38.28;161933.78;1801472;80;21139;-82
2021/05/27 02:30:03;;;;;;;9.35;6.20;;;;;;;40.72;38.31;161939.16;1802538;77;21341;-82
2021/05/27 02:32:36;;;;;;;7.50;5.50;;;;;;;40.79;38.11;161956.67;1801851;77;21146;-82
2021/05/27 02:35:09;;;;;;;8.53;5.80;;;;;;;40.41;38.50;161855.94;1805943;79;21151;-85
2021/05/27 02:37:42;;;;;;;7.45;5.25;;;;;;;40.24;38.65;161808.94;1800861;79;21368;-85
2021/05/27 02:40:15;;;;;;;8.50;5.95;;;;;;;40.23;38.73;161807.61;1798556;80;21178;-85
2021/05/27 02:42:47;;;;;;;9.50;5.92;;;;;;;40.35;38.57;161838.50;1799043;79;21265;-83
2021/05/27 02:45:22;;;;;;;8.60;5.47;;;;;;;40.50;38.38;161878.75;1791328;80;22419;-84
2021/05/27 02:47:54;;;;;;;10.15;5.83;;;;;;;40.22;38.70;161804.92;1784571;80;21339;-84
2021/05/27 02:50:28;;;;;;;7.83;6.03;;;;;;;40.20;38.76;161798.23;1780700;80;21903;-86
2021/05/27 02:53:01;;;;;;;9.33;6.00;;;;;;;40.21;38.73;161800.92;1797797;79;21344;-85
2021/05/27 02:55:35;;;;;;;7.28;5.58;;;;;;;40.19;38.82;161795.55;1798639;79;22402;-85
2021/05/27 02:58:07;;;;;;;8.05;6.62;;;;;;;40.17;38.86;161791.48;1787008;80;21277;-84
2021/05/27 03:00:40;;;;;;;11.33;6.87;;;;;;;40.13;38.91;161780.78;1792565;80;21922;-85
2021/05/27 03:03:20;;;;;;;10.40;6.80;;;;;;;40.15;38.91;161786.16;1788265;79;21840;-84
2021/05/27 03:05:53;;;;;;;8.45;6.87;;;;;;;40.08;39.00;161766.03;1798921;79;21680;-84
2021/05/27 03:08:27;;;;;;;10.20;7.00;;;;;;;40.18;38.94;161794.17;1798460;79;21717;-83
2021/05/27 03:11:01;;;;;;;9.33;6.45;;;;;;;40.23;38.91;161807.61;1798538;79;21260;-85
2021/05/27 03:13:34;;;;;;;7.53;6.42;;;;;;;40.26;38.91;161814.31;1798103;79;21336;-84
2021/05/27 03:16:06;;;;;;;8.18;6.45;;;;;;;40.35;38.79;161839.86;1795481;80;21339;-84
2021/05/27 03:18:40;;;;;;;9.20;6.70;;;;;;;40.67;38.46;161925.72;1799123;78;21816;-84
2021/05/27 03:21:13;;;;;;;10.75;6.78;;;;;;;40.85;38.20;161974.11;1797467;80;21339;-84
2021/05/27 03:23:46;;;;;;;8.85;6.70;;;;;;;40.42;38.55;161857.31;1789940;79;21275;-86
2021/05/27 03:26:18;;;;;;;9.05;6.37;;;;;;;40.36;38.79;161841.19;1795028;79;21860;-86
2021/05/27 03:28:52;;;;;;;9.95;7.33;;;;;;;40.21;39.00;161802.23;1798862;80;21166;-83
2021/05/27 03:31:25;;;;;;;9.38;6.75;;;;;;;40.38;38.90;161846.56;1796653;80;21225;-84
2021/05/27 03:33:58;;;;;;;8.98;7.05;;;;;;;40.23;39.04;161806.25;1798678;80;21166;-85
2021/05/27 03:36:31;;;;;;;6.90;5.95;;;;;;;40.25;39.09;161812.98;1796957;79;21157;-83
2021/05/27 03:39:05;;;;;;;8.75;6.25;;;;;;;40.36;38.97;161842.55;1798639;79;21242;-82
2021/05/27 03:41:38;;;;;;;9.90;6.85;;;;;;;40.40;38.94;161853.25;1795896;79;21159;-85
2021/05/27 03:44:12;;;;;;;12.47;7.28;;;;;;;40.44;38.92;161862.69;1797847;79;21213;-84
2021/05/27 03:46:48;;;;;;;9.63;6.60;;;;;;;40.52;38.87;161884.13;1792786;79;21283;-84
2021/05/27 03:49:20;;;;;;;10.00;7.78;;;;;;;40.42;38.96;161858.63;1783487;79;21202;-86
2021/05/27 03:51:54;;;;;;;8.98;6.97;;;;;;;40.48;38.84;161874.75;1774693;79;21257;-86
2021/05/27 03:54:28;;;;;;;9.58;7.45;;;;;;;40.51;38.82;161882.77;1777593;79;21266;-85
2021/05/27 03:57:01;;;;;;;10.10;7.83;;;;;;;40.57;38.77;161897.58;1776110;79;21210;-84
2021/05/27 04:02:32;;;;;;;9.53;7.22;;;;;;;40.36;39.29;161842.55;1773738;79;21907;-85
2021/05/27 04:07:56;;;;;;;11.33;8.03;;;;;;;40.38;39.26;161847.92;1740549;79;21301;-84
2021/05/27 04:10:31;;;;;;;10.03;7.83;;;;;;;40.36;39.49;161842.55;1778105;79;21293;-84
2021/05/27 04:13:05;;;;;;;9.50;7.10;;;;;;;40.41;39.53;161855.94;1779373;79;21708;-86
2021/05/27 04:15:40;;;;;;;10.75;7.53;;;;;;;40.39;39.54;161850.61;1775885;79;21214;-86
2021/05/27 04:18:19;;;;;;;9.68;7.78;;;;;;;40.43;39.54;161861.31;1777401;79;21321;-87
2021/05/27 04:20:58;;;;;;;9.33;7.33;;;;;;;40.46;39.73;161869.37;1793886;79;21210;-86
2021/05/27 04:23:34;;;;;;;8.48;7.12;;;;;;;40.64;39.61;161916.34;1801758;79;21310;-86
2021/05/27 04:26:11;;;;;;;11.83;7.30;;;;;;;40.62;39.54;161912.34;1798569;79;21360;-86
2021/05/27 04:28:46;;;;;;;8.28;6.78;;;;;;;40.57;39.65;161898.91;1793804;78;21158;-87
2021/05/27 04:31:21;;;;;;;8.85;6.37;;;;;;;40.51;39.73;161881.44;1796917;79;21266;-85
2021/05/27 04:33:54;;;;;;;12.28;6.83;;;;;;;40.43;39.78;161860.00;1785298;80;21309;-86
2021/05/27 04:36:27;;;;;;;7.75;5.78;;;;;;;40.83;39.36;161967.37;1788397;80;21209;-86
2021/05/27 04:39:00;;;;;;;8.90;5.67;;;;;;;40.67;39.56;161925.72;1797291;79;21658;-85
2021/05/27 04:41:34;;;;;;;7.05;5.50;;;;;;;40.71;39.65;161935.11;1798725;79;21332;-86
2021/05/27 04:44:07;;;;;;;6.00;5.05;;;;;;;40.83;39.51;161968.73;1791317;79;21348;-85
2021/05/27 04:46:39;;;;;;;8.75;5.85;;;;;;;41.29;39.05;162093.59;1798208;79;21203;-87
2021/05/27 04:49:11;;;;;;;9.70;6.00;;;;;;;41.46;38.83;162139.25;1798016;79;21202;-87
2021/05/27 04:51:44;;;;;;;7.55;5.92;;;;;;;40.96;39.45;162003.64;1795628;80;21277;-87
2021/05/27 04:54:16;;;;;;;5.95;5.30;;;;;;;40.82;39.88;161966.05;1790925;80;21300;-87
2021/05/27 04:56:49;;;;;;;8.08;5.90;;;;;;;40.86;39.94;161976.75;1791540;80;21289;-86
2021/05/27 04:59:21;;;;;;;6.80;5.70;;;;;;;40.90;39.83;161987.50;1786862;80;21772;-82
2021/05/27 05:01:54;;;;;;;7.17;6.08;;;;;;;40.94;39.77;161998.27;1790850;79;21190;-81
2021/05/27 05:04:26;;;;;;;8.48;6.17;;;;;;;40.96;39.88;162003.64;1797737;80;21160;-82
2021/05/27 05:06:58;;;;;;;6.83;6.03;;;;;;;40.87;40.16;161978.13;1795438;79;21155;-83
2021/05/27 05:09:31;;;;;;;8.93;6.05;;;;;;;40.94;39.99;161999.58;1777273;79;21236;-82
2021/05/27 05:12:03;;;;;;;7.42;5.65;;;;;;;41.08;39.80;162035.86;1776244;79;21210;-85
2021/05/27 05:14:36;;;;;;;8.20;6.45;;;;;;;41.04;39.79;162025.09;1775995;79;21230;-81
2021/05/27 05:17:09;;;;;;;7.60;5.60;;;;;;;41.02;39.74;162019.72;1773689;78;21210;-83
2021/05/27 05:19:43;;;;;;;6.47;5.70;;;;;;;41.06;39.78;162030.48;1774115;80;21218;-82
2021/05/27 05:22:18;;;;;;;7.40;5.78;;;;;;;41.05;39.89;162029.11;1774648;79;21360;-78
2021/05/27 05:24:51;;;;;;;9.18;6.03;;;;;;;40.96;40.07;162004.95;1773236;79;21854;-82
2021/05/27 05:27:27;;;;;;;8.20;5.72;;;;;;;41.16;39.90;162057.38;1772761;79;21175;-80
2021/05/27 05:30:08;;;;;;;9.60;6.03;;;;;;;41.17;39.90;162060.06;1780388;80;21463;-80
2021/05/27 05:32:44;;;;;;;6.45;5.20;;;;;;;41.27;39.77;162086.89;1771675;80;21713;-80
2021/05/27 05:35:22;;;;;;;7.47;5.37;;;;;;;41.31;39.58;162097.66;1771517;79;21423;-80
2021/05/27 05:38:05;;;;;;;7.42;5.08;;;;;;;41.31;39.58;162097.66;1775976;79;21785;-80
2021/05/27 05:40:46;;;;;;;5.33;4.62;;;;;;;41.33;39.54;162102.98;1774350;80;22343;-81
2021/05/27 05:43:24;;;;;;;5.30;4.80;;;;;;;41.31;39.50;162098.97;1785317;79;21803;-80
2021/05/27 05:46:01;;;;;;;7.37;4.97;;;;;;;41.35;39.43;162109.73;1778476;79;21348;-85
2021/05/27 05:48:35;;;;;;;5.55;4.78;;;;;;;41.46;39.32;162137.89;1772938;80;21396;-82
2021/05/27 05:51:07;;;;;;;5.67;5.10;;;;;;;41.59;39.20;162172.86;1775607;79;21733;-82
2021/05/27 05:53:41;;;;;;;7.95;4.90;;;;;;;41.49;39.27;162147.33;1784901;80;21238;-82
2021/05/27 05:56:14;;;;;;;4.65;3.87;;;;;;;41.95;38.87;162270.97;1774688;80;21422;-84
2021/05/27 05:58:46;;;;;;;4.58;3.92;;;;;;;41.63;38.44;162183.63;1785145;80;21361;-84
2021/05/27 06:01:20;;;;;;;4.58;3.60;;;;;;;41.58;38.34;162170.17;1773784;80;21321;-85
2021/05/27 06:03:53;;;;;;;4.60;3.50;;;;;;;41.46;38.33;162139.25;1774943;80;21379;-85
2021/05/27 06:06:39;;;;;;;5.00;4.28;;;;;;;41.63;38.11;162183.63;1728315;80;21309;-87
2021/05/27 06:09:14;;;;;;;6.53;3.87;;;;;;;41.67;38.06;162195.69;1765369;80;21325;-86
2021/05/27 06:11:47;;;;;;;4.62;3.70;;;;;;;41.54;38.16;162160.72;1769833;79;21360;-85
2021/05/27 06:14:20;;;;;;;5.22;4.67;;;;;;;41.54;38.29;162159.41;1778119;80;21270;-84
2021/05/27 06:16:53;;;;;;;4.83;3.98;;;;;;;41.64;38.27;162186.31;1789834;78;21185;-83
2021/05/27 06:19:25;;;;;;;5.35;4.08;;;;;;;41.73;38.17;162211.78;1791062;80;21707;-84
2021/05/27 06:22:06;;;;;;;4.50;4.10;;;;;;;41.78;38.08;162225.23;1793826;80;21911;-82
2021/05/27 06:24:41;;;;;;;4.42;3.90;;;;;;;41.96;37.81;162273.61;1793028;80;21206;-84
2021/05/27 06:27:13;;;;;;;4.92;3.90;;;;;;;41.94;37.79;162268.22;1788317;80;21202;-84
2021/05/27 06:29:46;;;;;;;6.12;3.25;;;;;;;42.00;37.69;162285.75;1767453;80;21166;-84
2021/05/27 06:32:19;;;;;;;4.95;3.35;;;;;;;42.00;37.50;162284.38;1784936;80;21218;-85
2021/05/27 06:34:52;;;;;;;5.45;3.47;;;;;;;42.08;37.34;162307.20;1763081;81;21183;-86
2021/05/27 06:37:24;;;;;;;5.05;3.92;;;;;;;42.07;37.28;162304.52;1786470;80;21208;-85
2021/05/27 06:39:57;;;;;;;5.25;3.30;;;;;;;42.07;37.40;162303.20;1794667;80;21218;-85
2021/05/27 06:42:29;;;;;;;4.92;3.15;;;;;;;42.27;37.19;162358.23;1794409;80;21160;-86
2021/05/27 06:45:02;;;;;;;4.03;2.77;;;;;;;42.13;37.16;162320.61;1794864;80;21712;-87
2021/05/27 06:47:34;;;;;;;4.65;3.05;;;;;;;42.13;36.77;162319.30;1791863;79;21823;-86
2021/05/27 06:50:08;;;;;;;3.47;3.00;;;;;;;42.36;36.40;162381.13;1793860;80;21352;-87
2021/05/27 06:52:41;;;;;;;4.03;2.90;;;;;;;42.28;36.44;162359.61;1794379;79;21167;-87
2021/05/27 06:55:13;;;;;;;3.27;2.50;;;;;;;42.33;36.44;162374.37;1782557;79;21190;-86
2021/05/27 06:57:45;;;;;;;3.45;3.10;;;;;;;42.37;36.39;162385.14;1792862;80;21321;-85
2021/05/27 07:00:20;;;;;;;4.65;3.42;;;;;;;42.47;36.10;162412.05;1788574;79;21201;-85
2021/05/27 07:02:52;;;;;;;3.42;3.12;;;;;;;42.49;36.06;162416.06;1785362;80;21365;-86
2021/05/27 07:05:25;;;;;;;4.55;3.20;;;;;;;42.58;35.90;162441.61;1784246;80;21316;-85
2021/05/27 07:07:59;;;;;;;7.37;4.50;;;;;;;42.64;35.62;162457.70;1779152;79;21852;-86
2021/05/27 07:10:32;;;;;;;13.15;3.65;;;;;;;42.66;35.52;162463.09;1792503;80;21317;-85
2021/05/27 07:13:10;;;;;;;5.03;3.50;;;;;;;42.71;35.50;162475.17;1779600;79;21174;-85
2021/05/27 07:15:42;;;;;;;4.22;3.80;;;;;;;42.72;35.55;162479.19;1790568;79;21301;-85
2021/05/27 07:18:15;;;;;;;8.43;3.70;;;;;;;43.01;35.23;162558.52;1795546;79;21303;-86
2021/05/27 07:20:48;;;;;;;5.60;3.80;;;;;;;43.00;35.23;162554.50;1794440;80;21290;-84
2021/05/27 07:23:20;;;;;;;5.85;3.67;;;;;;;43.14;35.14;162593.52;1789146;80;21682;-86
2021/05/27 07:25:53;;;;;;;5.62;4.00;;;;;;;43.20;35.05;162609.67;1791459;80;21713;-82
2021/05/27 07:28:26;;;;;;;7.15;4.35;;;;;;;43.11;35.24;162584.06;1793936;80;21300;-84
2021/05/27 07:31:00;;;;;;;5.58;3.60;;;;;;;43.11;35.02;162585.44;1776778;79;21262;-86
2021/05/27 07:33:33;;;;;;;6.92;3.58;;;;;;;43.29;34.71;162632.53;1768460;79;21248;-87
2021/05/27 07:36:06;;;;;;;4.72;3.65;;;;;;;43.25;34.91;162621.75;1771471;79;21364;-85
2021/05/27 07:38:38;;;;;;;5.62;3.25;;;;;;;43.26;34.86;162624.45;1767135;79;21265;-84
2021/05/27 07:41:11;;;;;;;4.78;3.50;;;;;;;43.31;34.93;162639.23;1769464;79;21337;-83
2021/05/27 07:43:44;;;;;;;7.55;3.58;;;;;;;43.49;34.99;162686.28;1766495;79;21464;-84
2021/05/27 07:46:17;;;;;;;5.45;3.58;;;;;;;43.64;34.75;162726.63;1774166;79;22096;-83
2021/05/27 07:48:49;;;;;;;6.42;3.77;;;;;;;43.75;34.61;162756.25;1746238;80;21333;-82
2021/05/27 07:51:22;;;;;;;4.40;3.77;;;;;;;43.75;34.50;162757.56;1772487;79;21329;-82
2021/05/27 07:53:55;;;;;;;6.28;4.92;;;;;;;43.96;34.33;162814.08;1770722;79;21309;-82
2021/05/27 07:56:27;;;;;;;7.05;4.95;;;;;;;44.03;34.22;162832.94;1727675;80;21166;-87
2021/05/27 07:59:00;;;;;;;6.17;5.15;;;;;;;44.01;34.32;162828.87;1768727;79;21293;-84
2021/05/27 08:01:32;;;;;;;7.55;5.08;;;;;;;44.02;34.33;162831.56;1768029;79;21381;-85
2021/05/27 08:04:05;;;;;;;8.15;4.87;;;;;;;44.11;34.29;162855.75;1765077;80;21226;-84
2021/05/27 08:06:37;;;;;;;7.10;4.70;;;;;;;44.24;34.02;162889.41;1765635;79;21403;-86
2021/05/27 08:09:11;;;;;;;6.67;5.30;;;;;;;44.25;33.58;162893.41;1765206;79;21211;-83
2021/05/27 08:11:44;;;;;;;8.40;5.37;;;;;;;44.24;33.45;162890.72;1766941;79;22179;-83
2021/05/27 08:14:17;;;;;;;13.25;4.80;;;;;;;44.06;33.41;162840.97;1766763;79;21364;-86
2021/05/27 08:16:49;;;;;;;9.05;5.00;;;;;;;44.16;33.30;162867.84;1774554;79;21404;-82
2021/05/27 08:19:23;;;;;;;7.03;4.92;;;;;;;44.17;33.34;162871.91;1783251;80;21312;-84
2021/05/27 08:21:55;;;;;;;9.08;5.20;;;;;;;44.06;33.31;162842.33;1776283;79;21653;-83
2021/05/27 08:24:28;;;;;;;7.22;5.53;;;;;;;44.15;33.12;162865.20;1775320;80;21256;-82
2021/05/27 08:27:01;;;;;;;4.90;4.25;;;;;;;44.14;33.06;162863.83;1787887;79;21310;-83
2021/05/27 08:29:33;;;;;;;4.65;4.12;;;;;;;44.12;33.06;162858.44;1794087;80;21305;-83
2021/05/27 08:32:08;;;;;;;4.08;3.65;;;;;;;44.17;32.92;162871.91;1794466;80;21353;-83
2021/05/27 08:34:40;;;;;;;4.42;3.83;;;;;;;44.11;33.12;162854.44;1789410;80;21380;-82
2021/05/27 08:37:14;;;;;;;5.87;4.28;;;;;;;44.16;33.11;162869.22;1789930;80;21696;-83
2021/05/27 08:39:47;;;;;;;5.58;4.00;;;;;;;44.15;33.15;162866.53;1775130;80;21201;-82
2021/05/27 08:42:19;;;;;;;7.85;4.53;;;;;;;44.18;33.15;162873.23;1775182;80;21422;-82
2021/05/27 08:44:52;;;;;;;7.20;4.80;;;;;;;44.06;33.40;162840.97;1775189;81;21183;-83
2021/05/27 08:47:25;;;;;;;7.97;5.08;;;;;;;44.19;33.26;162877.31;1775229;81;21182;-83
2021/05/27 08:49:58;;;;;;;8.98;5.17;;;;;;;44.19;33.37;162875.94;1789878;80;21911;-82
2021/05/27 08:52:30;;;;;;;8.05;5.17;;;;;;;44.19;33.43;162877.31;1794241;80;21337;-83
2021/05/27 08:55:03;;;;;;;7.90;5.20;;;;;;;44.20;33.33;162878.62;1794526;80;21321;-82
2021/05/27 08:57:35;;;;;;;9.05;4.90;;;;;;;44.22;33.23;162885.33;1792629;80;21171;-82
2021/05/27 09:00:09;;;;;;;6.22;5.62;;;;;;;44.12;33.08;162858.44;1793143;79;21333;-81
2021/05/27 09:03:03;;;;;;;5.70;5.10;;;;;;;44.13;33.03;162859.81;1774579;80;21344;-83
2021/05/27 09:05:36;;;;;;;5.90;4.90;;;;;;;44.19;33.02;162875.94;1770228;80;21175;-82
2021/05/27 09:08:29;;;;;;;9.15;5.65;;;;;;;44.30;32.99;162906.94;1779014;79;21171;-82
2021/05/27 09:11:13;;;;;;;9.45;5.65;;;;;;;44.25;32.80;162893.41;1777611;80;21198;-82
2021/05/27 09:13:55;;;;;;;8.83;5.87;;;;;;;44.31;32.64;162909.63;1703583;84;21444;-84
2021/05/27 09:16:27;;;;;;;8.93;6.45;;;;;;;44.26;32.66;162896.16;1769153;80;21675;-82
2021/05/27 09:19:19;;;;;;;10.53;7.08;;;;;;;44.17;32.67;162870.55;1789011;79;21201;-83
2021/05/27 09:21:52;;;;;;;8.95;6.75;;;;;;;44.08;32.80;162847.72;1792994;80;21675;-82
2021/05/27 09:24:48;;;;;;;7.10;6.15;;;;;;;44.06;32.93;162842.33;1776737;80;21859;-82
2021/05/27 09:27:25;;;;;;;7.58;6.20;;;;;;;44.06;33.00;162842.33;1779604;80;21175;-83
2021/05/27 09:29:58;;;;;;;6.47;5.78;;;;;;;44.03;33.16;162832.94;1787692;80;21304;-82
2021/05/27 09:32:31;;;;;;;12.20;6.62;;;;;;;44.10;33.23;162851.73;1728607;81;21309;-82
2021/05/27 09:35:04;;;;;;;7.87;6.45;;;;;;;44.19;33.26;162877.31;1749221;79;21965;-83
2021/05/27 09:37:36;;;;;;;7.05;6.35;;;;;;;44.42;33.10;162939.22;1726134;81;21332;-83
2021/05/27 09:40:12;;;;;;;11.28;6.97;;;;;;;44.39;33.28;162929.81;1764016;81;21211;-82
2021/05/27 09:42:50;;;;;;;10.55;6.75;;;;;;;44.32;33.29;162912.33;1753437;81;21186;-83
2021/05/27 09:45:24;;;;;;;8.15;7.35;;;;;;;44.33;33.36;162914.97;1780348;80;21685;-83
2021/05/27 09:47:58;;;;;;;8.18;7.10;;;;;;;44.57;33.20;162979.53;1780268;80;21336;-83
2021/05/27 09:50:33;;;;;;;9.55;7.20;;;;;;;44.78;33.16;163034.75;1780293;79;21335;-82
2021/05/27 09:53:20;;;;;;;8.60;6.97;;;;;;;44.84;33.09;163052.23;1710470;83;21642;-82
2021/05/27 09:55:54;;;;;;;7.08;6.00;;;;;;;44.68;33.17;163009.17;1710323;83;21155;-83
2021/05/27 09:58:29;;;;;;;7.45;6.75;;;;;;;45.02;33.27;163100.75;1770627;80;21200;-82
2021/05/27 10:01:09;;;;;;;9.20;6.60;;;;;;;45.02;33.27;163100.75;1780072;80;21348;-82
2021/05/27 10:03:41;;;;;;;9.68;6.42;;;;;;;44.96;33.27;163084.53;1780734;80;21323;-81
2021/05/27 10:06:13;;;;;;;7.12;6.15;;;;;;;44.97;33.29;163087.22;1780320;80;21321;-82
2021/05/27 10:08:57;;;;;;;8.58;6.53;;;;;;;44.98;33.20;163091.23;1752063;80;21348;-83
2021/05/27 10:11:30;;;;;;;10.53;6.70;;;;;;;45.17;33.03;163142.45;1748837;82;21214;-83
2021/05/27 10:14:03;;;;;;;7.00;6.28;;;;;;;45.09;32.95;163119.56;1799991;80;21328;-83
2021/05/27 10:16:37;;;;;;;6.30;5.70;;;;;;;45.11;32.80;163126.28;1784510;79;21190;-83
2021/05/27 10:19:10;;;;;;;6.80;5.70;;;;;;;45.00;32.83;163096.69;1779244;80;21209;-82
2021/05/27 10:21:43;;;;;;;6.53;5.72;;;;;;;44.93;32.95;163077.81;1780347;80;21139;-83
2021/05/27 10:24:16;;;;;;;7.87;5.60;;;;;;;44.89;32.96;163065.72;1792432;80;21197;-83
2021/05/27 10:26:48;;;;;;;5.72;5.15;;;;;;;44.82;33.15;163046.84;1772353;80;21161;-82
2021/05/27 10:29:24;;;;;;;5.45;4.15;;;;;;;44.92;33.14;163073.75;1772028;81;21266;-83
2021/05/27 10:31:57;;;;;;;4.83;4.22;;;;;;;44.90;33.05;163069.72;1776709;80;21674;-82
2021/05/27 10:34:50;;;;;;;9.43;5.10;;;;;;;44.94;33.05;163079.14;1768302;80;21434;-83
2021/05/27 10:37:43;;;;;;;5.42;3.80;;;;;;;45.03;32.99;163103.39;1776865;80;21289;-83
2021/05/27 10:40:35;;;;;;;3.67;3.37;;;;;;;44.95;33.06;163081.83;1791991;80;21334;-82
2021/05/27 10:43:16;;;;;;;3.98;3.58;;;;;;;44.92;33.13;163073.75;1792239;80;21222;-83
2021/05/27 10:46:07;;;;;;;3.40;3.10;;;;;;;44.96;33.02;163084.53;1792091;79;21144;-84
2021/05/27 10:48:47;;;;;;;4.03;3.00;;;;;;;44.91;33.00;163071.05;1783503;80;21294;-83
2021/05/27 10:54:05;;;;;;;4.83;3.27;;;;;;;44.85;33.09;163054.94;1773894;80;21773;-82
2021/05/27 10:56:46;;;;;;;3.92;2.65;;;;;;;44.71;33.24;163015.94;1780604;80;21202;-84
2021/05/27 10:59:19;;;;;;;3.67;3.10;;;;;;;44.63;33.35;162994.31;1797700;79;21269;-85
2021/05/27 11:01:52;;;;;;;5.30;3.45;;;;;;;44.61;33.40;162990.31;1799241;80;21218;-85
2021/05/27 11:04:37;;;;;;;4.40;3.10;;;;;;;44.60;33.46;162987.61;1799679;80;21209;-86
2021/05/27 11:07:16;;;;;;;7.35;3.10;;;;;;;44.57;33.49;162979.53;1774967;79;21194;-86
2021/05/27 11:09:51;;;;;;;4.65;2.60;;;;;;;44.54;33.57;162970.12;1773447;79;21974;-83
2021/05/27 11:12:26;;;;;;;3.92;3.37;;;;;;;44.58;33.54;162982.22;1775968;79;21332;-85
2021/05/27 11:15:08;;;;;;;4.42;2.83;;;;;;;44.61;33.55;162990.31;1773261;79;21249;-83
2021/05/27 11:17:41;;;;;;;3.30;2.50;;;;;;;44.35;33.80;162920.36;1777317;79;21415;-84
2021/05/27 11:20:26;;;;;;;4.67;2.60;;;;;;;44.57;33.67;162979.53;1776270;79;21859;-83
2021/05/27 11:22:56;;;;;;;4.15;2.17;;;;;;;44.77;33.47;163033.42;1750708;80;21888;-85
2021/05/27 11:25:31;;;;;;;5.60;2.12;;;;;;;44.78;33.43;163036.13;1775378;80;21167;-82
2021/05/27 11:28:14;;;;;;;4.83;2.35;;;;;;;44.87;33.36;163061.64;1774701;79;21320;-82
2021/05/27 11:30:52;;;;;;;3.70;1.90;;;;;;;44.78;33.38;163034.75;1772359;79;21151;-81
2021/05/27 11:33:29;;;;;;;8.43;2.17;;;;;;;44.86;33.29;163057.62;1772790;79;21376;-83
2021/05/27 11:36:06;;;;;;;4.78;2.65;;;;;;;44.85;33.34;163054.94;1776405;79;21262;-85
2021/05/27 11:38:40;;;;;;;2.60;1.82;;;;;;;44.86;33.35;163057.62;1773889;79;21372;-86
2021/05/27 11:41:17;;;;;;;3.33;1.95;;;;;;;44.77;33.52;163033.42;1756804;80;21872;-87
2021/05/27 11:43:53;;;;;;;2.30;1.70;;;;;;;44.75;33.69;163028.03;1775747;79;22785;-85
2021/05/27 11:46:30;;;;;;;2.80;1.90;;;;;;;44.66;33.84;163002.47;1775129;79;21356;-86
2021/05/27 11:49:02;;;;;;;6.08;2.10;;;;;;;44.62;33.97;162991.69;1775645;79;21360;-85
2021/05/27 11:51:38;;;;;;;6.10;1.90;;;;;;;44.36;34.27;162923.06;1774081;79;21820;-83
2021/05/27 11:54:11;;;;;;;3.15;1.95;;;;;;;44.26;34.40;162896.16;1774304;79;21170;-89
2021/05/27 11:56:46;;;;;;;5.70;2.10;;;;;;;44.17;34.54;162871.91;1732275;80;21227;-86
2021/05/27 11:59:22;;;;;;;3.60;2.00;;;;;;;44.27;34.51;162897.53;1705139;83;21256;-87
2021/05/27 12:02:03;;;;;;;4.92;1.90;;;;;;;44.34;34.46;162916.34;1765804;79;21375;-85
2021/05/27 12:04:32;;;;;;;3.17;2.10;;;;;;;44.25;34.57;162892.09;1769377;79;21930;-84
2021/05/27 12:07:17;;;;;;;3.83;1.77;;;;;;;44.16;34.66;162867.84;1769053;79;21372;-82
2021/05/27 12:09:49;;;;;;;7.45;2.42;;;;;;;44.22;34.61;162885.33;1767517;79;21377;-87